sensor_id;sensor_type;location;lat;lon;timestamp;P1;durP1;ratioP1;P2;durP2;ratioP2
69621;SDS011;56841;55.964;37.674;2023-06-19T00:02:14;7.13;;;2.13;;
69621;SDS011;56841;55.964;37.674;2023-06-19T00:04:40;7.68;;;2.50;;
69621;SDS011;56841;55.964;37.674;2023-06-19T00:07:06;5.18;;;1.92;;
69621;SDS011;56841;55.964;37.674;2023-06-19T00:09:32;6.20;;;2.28;;
69621;SDS011;56841;55.964;37.674;2023-06-19T00:11:58;4.75;;;1.83;;
69621;SDS011;56841;55.964;37.674;2023-06-19T00:14:25;5.13;;;1.95;;
69621;SDS011;56841;55.964;37.674;2023-06-19T00:16:51;6.25;;;2.28;;
69621;SDS011;56841;55.964;37.674;2023-06-19T00:19:16;4.20;;;2.20;;
69621;SDS011;56841;55.964;37.674;2023-06-19T00:21:43;5.90;;;2.30;;
69621;SDS011;56841;55.964;37.674;2023-06-19T00:24:09;5.45;;;2.10;;
69621;SDS011;56841;55.964;37.674;2023-06-19T00:26:35;5.10;;;2.15;;
69621;SDS011;56841;55.964;37.674;2023-06-19T00:29:01;6.45;;;2.13;;
69621;SDS011;56841;55.964;37.674;2023-06-19T00:31:27;5.75;;;2.10;;
69621;SDS011;56841;55.964;37.674;2023-06-19T00:33:53;5.57;;;1.83;;
69621;SDS011;56841;55.964;37.674;2023-06-19T00:36:19;7.32;;;2.20;;
69621;SDS011;56841;55.964;37.674;2023-06-19T00:38:46;5.68;;;2.03;;
69621;SDS011;56841;55.964;37.674;2023-06-19T00:41:13;5.22;;;2.20;;
69621;SDS011;56841;55.964;37.674;2023-06-19T00:43:41;11.85;;;5.60;;
69621;SDS011;56841;55.964;37.674;2023-06-19T00:46:07;24.98;;;11.38;;
69621;SDS011;56841;55.964;37.674;2023-06-19T00:48:33;26.80;;;13.82;;
69621;SDS011;56841;55.964;37.674;2023-06-19T00:50:59;22.75;;;12.45;;
69621;SDS011;56841;55.964;37.674;2023-06-19T00:53:25;10.00;;;4.90;;
69621;SDS011;56841;55.964;37.674;2023-06-19T00:55:51;62.85;;;17.23;;
69621;SDS011;56841;55.964;37.674;2023-06-19T00:58:19;49.08;;;16.60;;
69621;SDS011;56841;55.964;37.674;2023-06-19T01:00:45;92.25;;;35.10;;
69621;SDS011;56841;55.964;37.674;2023-06-19T01:03:12;23.42;;;11.20;;
69621;SDS011;56841;55.964;37.674;2023-06-19T01:05:38;16.40;;;7.25;;
69621;SDS011;56841;55.964;37.674;2023-06-19T01:08:06;240.73;;;72.22;;
69621;SDS011;56841;55.964;37.674;2023-06-19T01:10:37;107.70;;;29.35;;
69621;SDS011;56841;55.964;37.674;2023-06-19T01:15:57;11.20;;;4.50;;
69621;SDS011;56841;55.964;37.674;2023-06-19T01:18:24;9.30;;;3.33;;
69621;SDS011;56841;55.964;37.674;2023-06-19T01:20:52;7.80;;;2.63;;
69621;SDS011;56841;55.964;37.674;2023-06-19T01:23:17;34.40;;;14.55;;
69621;SDS011;56841;55.964;37.674;2023-06-19T01:25:43;236.52;;;100.53;;
69621;SDS011;56841;55.964;37.674;2023-06-19T01:28:10;285.95;;;126.57;;
69621;SDS011;56841;55.964;37.674;2023-06-19T01:30:40;172.18;;;78.47;;
69621;SDS011;56841;55.964;37.674;2023-06-19T01:33:18;108.00;;;47.28;;
69621;SDS011;56841;55.964;37.674;2023-06-19T01:35:48;61.45;;;25.30;;
69621;SDS011;56841;55.964;37.674;2023-06-19T01:38:15;21.58;;;9.05;;
69621;SDS011;56841;55.964;37.674;2023-06-19T01:40:43;14.90;;;6.68;;
69621;SDS011;56841;55.964;37.674;2023-06-19T01:43:09;7.72;;;3.38;;
69621;SDS011;56841;55.964;37.674;2023-06-19T01:45:36;7.15;;;2.60;;
69621;SDS011;56841;55.964;37.674;2023-06-19T01:48:02;7.28;;;2.60;;
69621;SDS011;56841;55.964;37.674;2023-06-19T01:50:27;11.07;;;4.00;;
69621;SDS011;56841;55.964;37.674;2023-06-19T01:52:53;7.72;;;3.10;;
69621;SDS011;56841;55.964;37.674;2023-06-19T01:55:19;5.97;;;2.10;;
69621;SDS011;56841;55.964;37.674;2023-06-19T01:57:45;5.93;;;2.30;;
69621;SDS011;56841;55.964;37.674;2023-06-19T02:00:13;8.57;;;2.20;;
69621;SDS011;56841;55.964;37.674;2023-06-19T02:02:39;4.63;;;1.90;;
69621;SDS011;56841;55.964;37.674;2023-06-19T02:05:05;6.68;;;2.30;;
69621;SDS011;56841;55.964;37.674;2023-06-19T02:07:31;9.38;;;2.25;;
69621;SDS011;56841;55.964;37.674;2023-06-19T02:09:57;5.70;;;2.03;;
69621;SDS011;56841;55.964;37.674;2023-06-19T02:12:22;6.28;;;2.03;;
69621;SDS011;56841;55.964;37.674;2023-06-19T02:14:49;7.40;;;2.13;;
69621;SDS011;56841;55.964;37.674;2023-06-19T02:17:14;6.47;;;2.10;;
69621;SDS011;56841;55.964;37.674;2023-06-19T02:19:40;6.00;;;2.30;;
69621;SDS011;56841;55.964;37.674;2023-06-19T02:22:25;6.03;;;1.98;;
69621;SDS011;56841;55.964;37.674;2023-06-19T02:24:53;5.38;;;2.10;;
69621;SDS011;56841;55.964;37.674;2023-06-19T02:27:19;6.20;;;2.50;;
69621;SDS011;56841;55.964;37.674;2023-06-19T02:29:45;4.90;;;2.28;;
69621;SDS011;56841;55.964;37.674;2023-06-19T02:32:11;7.53;;;2.60;;
69621;SDS011;56841;55.964;37.674;2023-06-19T02:34:37;7.28;;;2.38;;
69621;SDS011;56841;55.964;37.674;2023-06-19T02:37:04;5.72;;;2.40;;
69621;SDS011;56841;55.964;37.674;2023-06-19T02:39:30;5.68;;;2.40;;
69621;SDS011;56841;55.964;37.674;2023-06-19T02:41:57;4.53;;;2.33;;
69621;SDS011;56841;55.964;37.674;2023-06-19T02:44:22;4.65;;;2.30;;
69621;SDS011;56841;55.964;37.674;2023-06-19T02:46:48;5.13;;;2.10;;
69621;SDS011;56841;55.964;37.674;2023-06-19T02:49:14;4.40;;;2.10;;
69621;SDS011;56841;55.964;37.674;2023-06-19T02:51:41;5.13;;;2.10;;
69621;SDS011;56841;55.964;37.674;2023-06-19T02:54:10;5.97;;;2.20;;
69621;SDS011;56841;55.964;37.674;2023-06-19T02:56:37;6.25;;;2.45;;
69621;SDS011;56841;55.964;37.674;2023-06-19T02:59:04;4.80;;;1.92;;
69621;SDS011;56841;55.964;37.674;2023-06-19T03:01:29;5.07;;;2.08;;
69621;SDS011;56841;55.964;37.674;2023-06-19T03:03:55;6.82;;;2.00;;
69621;SDS011;56841;55.964;37.674;2023-06-19T03:06:21;5.53;;;1.83;;
69621;SDS011;56841;55.964;37.674;2023-06-19T03:08:47;4.43;;;1.90;;
69621;SDS011;56841;55.964;37.674;2023-06-19T03:11:12;4.07;;;2.00;;
69621;SDS011;56841;55.964;37.674;2023-06-19T03:13:49;4.75;;;1.85;;
69621;SDS011;56841;55.964;37.674;2023-06-19T03:16:17;5.43;;;2.00;;
69621;SDS011;56841;55.964;37.674;2023-06-19T03:18:43;5.55;;;1.90;;
69621;SDS011;56841;55.964;37.674;2023-06-19T03:21:14;8.32;;;2.00;;
69621;SDS011;56841;55.964;37.674;2023-06-19T03:23:42;4.40;;;1.80;;
69621;SDS011;56841;55.964;37.674;2023-06-19T03:26:08;5.05;;;1.70;;
69621;SDS011;56841;55.964;37.674;2023-06-19T03:28:36;5.15;;;1.75;;
69621;SDS011;56841;55.964;37.674;2023-06-19T03:31:03;3.47;;;1.70;;
69621;SDS011;56841;55.964;37.674;2023-06-19T03:33:29;3.67;;;1.60;;
69621;SDS011;56841;55.964;37.674;2023-06-19T03:35:56;3.95;;;1.85;;
69621;SDS011;56841;55.964;37.674;2023-06-19T03:38:35;3.60;;;1.75;;
69621;SDS011;56841;55.964;37.674;2023-06-19T03:41:01;4.30;;;1.63;;
69621;SDS011;56841;55.964;37.674;2023-06-19T03:43:27;3.33;;;1.60;;
69621;SDS011;56841;55.964;37.674;2023-06-19T03:45:53;4.65;;;1.83;;
69621;SDS011;56841;55.964;37.674;2023-06-19T03:48:19;4.43;;;1.63;;
69621;SDS011;56841;55.964;37.674;2023-06-19T03:50:45;5.07;;;1.98;;
69621;SDS011;56841;55.964;37.674;2023-06-19T03:53:10;3.72;;;1.65;;
69621;SDS011;56841;55.964;37.674;2023-06-19T03:55:36;4.38;;;1.80;;
69621;SDS011;56841;55.964;37.674;2023-06-19T03:58:02;4.50;;;1.73;;
69621;SDS011;56841;55.964;37.674;2023-06-19T04:00:27;3.55;;;1.88;;
69621;SDS011;56841;55.964;37.674;2023-06-19T04:02:53;6.10;;;1.80;;
69621;SDS011;56841;55.964;37.674;2023-06-19T04:05:18;7.90;;;1.80;;
69621;SDS011;56841;55.964;37.674;2023-06-19T04:07:48;5.65;;;1.77;;
69621;SDS011;56841;55.964;37.674;2023-06-19T04:10:13;6.60;;;1.70;;
69621;SDS011;56841;55.964;37.674;2023-06-19T04:12:39;6.15;;;1.90;;
69621;SDS011;56841;55.964;37.674;2023-06-19T04:15:06;5.38;;;1.70;;
69621;SDS011;56841;55.964;37.674;2023-06-19T04:17:32;6.55;;;1.63;;
69621;SDS011;56841;55.964;37.674;2023-06-19T04:19:58;3.25;;;1.80;;
69621;SDS011;56841;55.964;37.674;2023-06-19T04:22:24;6.53;;;1.80;;
69621;SDS011;56841;55.964;37.674;2023-06-19T04:24:49;3.80;;;1.83;;
69621;SDS011;56841;55.964;37.674;2023-06-19T04:27:16;8.88;;;1.80;;
69621;SDS011;56841;55.964;37.674;2023-06-19T04:29:41;5.30;;;1.65;;
69621;SDS011;56841;55.964;37.674;2023-06-19T04:32:07;4.97;;;1.73;;
69621;SDS011;56841;55.964;37.674;2023-06-19T04:34:40;4.40;;;1.80;;
69621;SDS011;56841;55.964;37.674;2023-06-19T04:37:11;4.95;;;1.70;;
69621;SDS011;56841;55.964;37.674;2023-06-19T04:39:37;4.30;;;1.90;;
69621;SDS011;56841;55.964;37.674;2023-06-19T04:42:03;4.32;;;1.75;;
69621;SDS011;56841;55.964;37.674;2023-06-19T04:44:29;3.85;;;1.60;;
69621;SDS011;56841;55.964;37.674;2023-06-19T04:47:01;4.38;;;1.70;;
69621;SDS011;56841;55.964;37.674;2023-06-19T04:49:28;6.47;;;1.60;;
69621;SDS011;56841;55.964;37.674;2023-06-19T04:51:58;4.68;;;1.63;;
69621;SDS011;56841;55.964;37.674;2023-06-19T04:54:24;4.68;;;1.80;;
69621;SDS011;56841;55.964;37.674;2023-06-19T04:56:51;4.53;;;1.60;;
69621;SDS011;56841;55.964;37.674;2023-06-19T04:59:16;4.53;;;1.90;;
69621;SDS011;56841;55.964;37.674;2023-06-19T05:01:43;4.63;;;2.00;;
69621;SDS011;56841;55.964;37.674;2023-06-19T05:04:09;3.38;;;1.52;;
69621;SDS011;56841;55.964;37.674;2023-06-19T05:06:36;5.15;;;1.80;;
69621;SDS011;56841;55.964;37.674;2023-06-19T05:09:02;5.78;;;1.73;;
69621;SDS011;56841;55.964;37.674;2023-06-19T05:11:28;4.38;;;1.80;;
69621;SDS011;56841;55.964;37.674;2023-06-19T05:13:53;4.57;;;1.63;;
69621;SDS011;56841;55.964;37.674;2023-06-19T05:16:19;4.78;;;1.95;;
69621;SDS011;56841;55.964;37.674;2023-06-19T05:18:45;5.18;;;1.70;;
69621;SDS011;56841;55.964;37.674;2023-06-19T05:21:11;4.50;;;1.58;;
69621;SDS011;56841;55.964;37.674;2023-06-19T05:23:37;4.57;;;1.80;;
69621;SDS011;56841;55.964;37.674;2023-06-19T05:26:03;3.85;;;1.70;;
69621;SDS011;56841;55.964;37.674;2023-06-19T05:28:29;4.18;;;1.80;;
69621;SDS011;56841;55.964;37.674;2023-06-19T05:30:55;4.90;;;1.75;;
69621;SDS011;56841;55.964;37.674;2023-06-19T05:33:21;3.83;;;1.63;;
69621;SDS011;56841;55.964;37.674;2023-06-19T05:35:48;5.75;;;1.60;;
69621;SDS011;56841;55.964;37.674;2023-06-19T05:38:19;3.40;;;1.70;;
69621;SDS011;56841;55.964;37.674;2023-06-19T05:40:45;3.17;;;1.70;;
69621;SDS011;56841;55.964;37.674;2023-06-19T05:43:11;5.65;;;1.50;;
69621;SDS011;56841;55.964;37.674;2023-06-19T05:45:37;3.50;;;1.50;;
69621;SDS011;56841;55.964;37.674;2023-06-19T05:48:03;4.03;;;1.63;;
69621;SDS011;56841;55.964;37.674;2023-06-19T05:50:29;4.43;;;1.70;;
69621;SDS011;56841;55.964;37.674;2023-06-19T05:52:56;5.20;;;1.73;;
69621;SDS011;56841;55.964;37.674;2023-06-19T05:55:21;5.47;;;1.75;;
69621;SDS011;56841;55.964;37.674;2023-06-19T05:57:47;4.32;;;1.80;;
69621;SDS011;56841;55.964;37.674;2023-06-19T06:00:13;6.28;;;1.70;;
69621;SDS011;56841;55.964;37.674;2023-06-19T06:02:40;5.47;;;1.95;;
69621;SDS011;56841;55.964;37.674;2023-06-19T06:05:06;6.15;;;1.77;;
69621;SDS011;56841;55.964;37.674;2023-06-19T06:07:34;7.43;;;1.60;;
69621;SDS011;56841;55.964;37.674;2023-06-19T06:09:59;3.65;;;1.67;;
69621;SDS011;56841;55.964;37.674;2023-06-19T06:12:25;3.60;;;1.40;;
69621;SDS011;56841;55.964;37.674;2023-06-19T06:14:51;6.93;;;1.70;;
69621;SDS011;56841;55.964;37.674;2023-06-19T06:17:16;3.30;;;1.70;;
69621;SDS011;56841;55.964;37.674;2023-06-19T06:19:42;3.65;;;1.67;;
69621;SDS011;56841;55.964;37.674;2023-06-19T06:22:07;3.08;;;1.45;;
69621;SDS011;56841;55.964;37.674;2023-06-19T06:24:33;4.13;;;1.52;;
69621;SDS011;56841;55.964;37.674;2023-06-19T06:26:59;2.75;;;1.50;;
69621;SDS011;56841;55.964;37.674;2023-06-19T06:29:24;3.67;;;1.70;;
69621;SDS011;56841;55.964;37.674;2023-06-19T06:31:50;3.50;;;1.65;;
69621;SDS011;56841;55.964;37.674;2023-06-19T06:34:18;4.32;;;1.60;;
69621;SDS011;56841;55.964;37.674;2023-06-19T06:36:45;4.63;;;1.50;;
69621;SDS011;56841;55.964;37.674;2023-06-19T06:39:10;3.95;;;1.50;;
69621;SDS011;56841;55.964;37.674;2023-06-19T06:41:36;5.53;;;1.50;;
69621;SDS011;56841;55.964;37.674;2023-06-19T06:44:04;3.40;;;1.42;;
69621;SDS011;56841;55.964;37.674;2023-06-19T06:46:30;4.60;;;1.58;;
69621;SDS011;56841;55.964;37.674;2023-06-19T06:48:56;3.28;;;1.60;;
69621;SDS011;56841;55.964;37.674;2023-06-19T06:51:22;3.30;;;1.52;;
69621;SDS011;56841;55.964;37.674;2023-06-19T06:53:47;5.50;;;1.60;;
69621;SDS011;56841;55.964;37.674;2023-06-19T06:56:13;4.88;;;1.70;;
69621;SDS011;56841;55.964;37.674;2023-06-19T06:58:38;4.80;;;1.48;;
69621;SDS011;56841;55.964;37.674;2023-06-19T07:01:04;7.38;;;1.60;;
69621;SDS011;56841;55.964;37.674;2023-06-19T07:03:30;4.72;;;1.48;;
69621;SDS011;56841;55.964;37.674;2023-06-19T07:05:57;3.40;;;1.38;;
69621;SDS011;56841;55.964;37.674;2023-06-19T07:08:22;3.13;;;1.45;;
69621;SDS011;56841;55.964;37.674;2023-06-19T07:10:48;2.78;;;1.40;;
69621;SDS011;56841;55.964;37.674;2023-06-19T07:13:14;4.43;;;1.40;;
69621;SDS011;56841;55.964;37.674;2023-06-19T07:15:40;4.57;;;1.75;;
69621;SDS011;56841;55.964;37.674;2023-06-19T07:18:05;4.15;;;1.40;;
69621;SDS011;56841;55.964;37.674;2023-06-19T07:20:31;3.58;;;1.58;;
69621;SDS011;56841;55.964;37.674;2023-06-19T07:22:56;3.70;;;1.50;;
69621;SDS011;56841;55.964;37.674;2023-06-19T07:25:22;4.50;;;1.50;;
69621;SDS011;56841;55.964;37.674;2023-06-19T07:27:50;4.78;;;1.55;;
69621;SDS011;56841;55.964;37.674;2023-06-19T07:30:16;2.72;;;1.50;;
69621;SDS011;56841;55.964;37.674;2023-06-19T07:32:42;4.75;;;1.55;;
69621;SDS011;56841;55.964;37.674;2023-06-19T07:35:08;5.60;;;1.77;;
69621;SDS011;56841;55.964;37.674;2023-06-19T07:37:33;4.28;;;1.50;;
69621;SDS011;56841;55.964;37.674;2023-06-19T07:40:00;3.47;;;1.50;;
69621;SDS011;56841;55.964;37.674;2023-06-19T07:42:26;3.90;;;1.70;;
69621;SDS011;56841;55.964;37.674;2023-06-19T07:44:52;3.70;;;1.50;;
69621;SDS011;56841;55.964;37.674;2023-06-19T07:47:17;3.83;;;1.40;;
69621;SDS011;56841;55.964;37.674;2023-06-19T07:49:44;3.50;;;1.40;;
69621;SDS011;56841;55.964;37.674;2023-06-19T07:52:10;3.13;;;1.50;;
69621;SDS011;56841;55.964;37.674;2023-06-19T07:54:36;3.35;;;1.42;;
69621;SDS011;56841;55.964;37.674;2023-06-19T07:57:02;3.72;;;1.45;;
69621;SDS011;56841;55.964;37.674;2023-06-19T07:59:28;3.78;;;1.40;;
69621;SDS011;56841;55.964;37.674;2023-06-19T08:01:53;3.88;;;1.55;;
69621;SDS011;56841;55.964;37.674;2023-06-19T08:04:19;3.50;;;1.60;;
69621;SDS011;56841;55.964;37.674;2023-06-19T08:06:44;4.60;;;1.50;;
69621;SDS011;56841;55.964;37.674;2023-06-19T08:09:10;4.35;;;1.52;;
69621;SDS011;56841;55.964;37.674;2023-06-19T08:11:35;2.78;;;1.20;;
69621;SDS011;56841;55.964;37.674;2023-06-19T08:14:02;2.90;;;1.30;;
69621;SDS011;56841;55.964;37.674;2023-06-19T08:16:28;2.95;;;1.50;;
69621;SDS011;56841;55.964;37.674;2023-06-19T08:18:53;3.60;;;1.52;;
69621;SDS011;56841;55.964;37.674;2023-06-19T08:21:19;2.92;;;1.52;;
69621;SDS011;56841;55.964;37.674;2023-06-19T08:23:46;3.20;;;1.40;;
69621;SDS011;56841;55.964;37.674;2023-06-19T08:26:13;3.05;;;1.60;;
69621;SDS011;56841;55.964;37.674;2023-06-19T08:28:38;4.63;;;1.50;;
69621;SDS011;56841;55.964;37.674;2023-06-19T08:31:06;4.13;;;1.52;;
69621;SDS011;56841;55.964;37.674;2023-06-19T08:33:33;2.50;;;1.50;;
69621;SDS011;56841;55.964;37.674;2023-06-19T08:36:00;3.45;;;1.55;;
69621;SDS011;56841;55.964;37.674;2023-06-19T08:38:26;3.80;;;1.50;;
69621;SDS011;56841;55.964;37.674;2023-06-19T08:40:51;3.08;;;1.70;;
69621;SDS011;56841;55.964;37.674;2023-06-19T08:43:17;2.80;;;1.38;;
69621;SDS011;56841;55.964;37.674;2023-06-19T08:45:43;4.10;;;1.50;;
69621;SDS011;56841;55.964;37.674;2023-06-19T08:48:17;5.25;;;1.50;;
69621;SDS011;56841;55.964;37.674;2023-06-19T08:50:42;2.55;;;1.40;;
69621;SDS011;56841;55.964;37.674;2023-06-19T08:53:08;3.03;;;1.40;;
69621;SDS011;56841;55.964;37.674;2023-06-19T08:55:33;5.30;;;1.50;;
69621;SDS011;56841;55.964;37.674;2023-06-19T08:58:00;4.32;;;1.60;;
69621;SDS011;56841;55.964;37.674;2023-06-19T09:00:26;3.03;;;1.50;;
69621;SDS011;56841;55.964;37.674;2023-06-19T09:02:59;3.60;;;1.67;;
69621;SDS011;56841;55.964;37.674;2023-06-19T09:05:29;4.47;;;1.50;;
69621;SDS011;56841;55.964;37.674;2023-06-19T09:07:55;3.60;;;1.42;;
69621;SDS011;56841;55.964;37.674;2023-06-19T09:10:23;2.55;;;1.42;;
69621;SDS011;56841;55.964;37.674;2023-06-19T09:12:56;4.15;;;1.52;;
69621;SDS011;56841;55.964;37.674;2023-06-19T09:15:27;4.40;;;1.52;;
69621;SDS011;56841;55.964;37.674;2023-06-19T09:18:07;2.83;;;1.50;;
69621;SDS011;56841;55.964;37.674;2023-06-19T09:20:38;3.22;;;1.60;;
69621;SDS011;56841;55.964;37.674;2023-06-19T09:23:12;4.18;;;1.70;;
69621;SDS011;56841;55.964;37.674;2023-06-19T09:25:48;5.63;;;1.70;;
69621;SDS011;56841;55.964;37.674;2023-06-19T09:28:26;2.78;;;1.30;;
69621;SDS011;56841;55.964;37.674;2023-06-19T09:33:28;3.50;;;1.70;;
69621;SDS011;56841;55.964;37.674;2023-06-19T09:35:55;2.85;;;1.50;;
69621;SDS011;56841;55.964;37.674;2023-06-19T09:38:26;2.88;;;1.40;;
69621;SDS011;56841;55.964;37.674;2023-06-19T09:40:52;5.47;;;1.40;;
69621;SDS011;56841;55.964;37.674;2023-06-19T09:43:19;5.50;;;1.80;;
69621;SDS011;56841;55.964;37.674;2023-06-19T09:48:18;2.60;;;1.50;;
69621;SDS011;56841;55.964;37.674;2023-06-19T09:50:52;3.05;;;1.63;;
69621;SDS011;56841;55.964;37.674;2023-06-19T09:53:23;3.10;;;1.40;;
69621;SDS011;56841;55.964;37.674;2023-06-19T09:55:50;3.50;;;1.50;;
69621;SDS011;56841;55.964;37.674;2023-06-19T09:58:19;3.00;;;1.48;;
69621;SDS011;56841;55.964;37.674;2023-06-19T10:00:45;3.08;;;1.40;;
69621;SDS011;56841;55.964;37.674;2023-06-19T10:03:12;2.63;;;1.40;;
69621;SDS011;56841;55.964;37.674;2023-06-19T10:05:38;3.70;;;1.45;;
69621;SDS011;56841;55.964;37.674;2023-06-19T10:08:05;3.70;;;1.55;;
69621;SDS011;56841;55.964;37.674;2023-06-19T10:10:32;2.90;;;1.58;;
69621;SDS011;56841;55.964;37.674;2023-06-19T10:12:59;3.03;;;1.40;;
69621;SDS011;56841;55.964;37.674;2023-06-19T10:15:39;4.38;;;1.63;;
69621;SDS011;56841;55.964;37.674;2023-06-19T10:18:08;2.90;;;1.50;;
69621;SDS011;56841;55.964;37.674;2023-06-19T10:20:38;2.78;;;1.40;;
69621;SDS011;56841;55.964;37.674;2023-06-19T10:23:14;3.42;;;1.48;;
69621;SDS011;56841;55.964;37.674;2023-06-19T10:25:46;3.63;;;1.70;;
69621;SDS011;56841;55.964;37.674;2023-06-19T10:30:43;4.90;;;1.90;;
69621;SDS011;56841;55.964;37.674;2023-06-19T10:33:09;3.40;;;1.70;;
69621;SDS011;56841;55.964;37.674;2023-06-19T10:35:38;4.03;;;1.52;;
69621;SDS011;56841;55.964;37.674;2023-06-19T10:38:05;2.72;;;1.40;;
69621;SDS011;56841;55.964;37.674;2023-06-19T10:40:32;4.47;;;1.40;;
69621;SDS011;56841;55.964;37.674;2023-06-19T10:42:58;3.85;;;1.45;;
69621;SDS011;56841;55.964;37.674;2023-06-19T10:45:24;3.95;;;1.67;;
69621;SDS011;56841;55.964;37.674;2023-06-19T10:47:54;5.93;;;1.90;;
69621;SDS011;56841;55.964;37.674;2023-06-19T10:50:20;3.50;;;1.60;;
69621;SDS011;56841;55.964;37.674;2023-06-19T10:52:48;5.68;;;1.60;;
69621;SDS011;56841;55.964;37.674;2023-06-19T10:55:23;4.60;;;1.55;;
69621;SDS011;56841;55.964;37.674;2023-06-19T10:57:49;3.95;;;1.70;;
69621;SDS011;56841;55.964;37.674;2023-06-19T11:00:22;4.55;;;1.90;;
69621;SDS011;56841;55.964;37.674;2023-06-19T11:02:56;3.83;;;1.50;;
69621;SDS011;56841;55.964;37.674;2023-06-19T11:05:23;4.78;;;1.90;;
69621;SDS011;56841;55.964;37.674;2023-06-19T11:07:53;4.30;;;2.33;;
69621;SDS011;56841;55.964;37.674;2023-06-19T11:12:48;3.95;;;1.67;;
69621;SDS011;56841;55.964;37.674;2023-06-19T11:15:14;4.75;;;1.70;;
69621;SDS011;56841;55.964;37.674;2023-06-19T11:17:40;4.75;;;2.40;;
69621;SDS011;56841;55.964;37.674;2023-06-19T11:20:13;3.95;;;1.63;;
69621;SDS011;56841;55.964;37.674;2023-06-19T11:22:40;3.05;;;1.50;;
69621;SDS011;56841;55.964;37.674;2023-06-19T11:25:06;4.38;;;1.90;;
69621;SDS011;56841;55.964;37.674;2023-06-19T11:27:36;2.72;;;1.50;;
69621;SDS011;56841;55.964;37.674;2023-06-19T11:30:03;5.38;;;2.53;;
69621;SDS011;56841;55.964;37.674;2023-06-19T11:32:35;4.03;;;2.40;;
69621;SDS011;56841;55.964;37.674;2023-06-19T11:35:10;3.72;;;1.60;;
69621;SDS011;56841;55.964;37.674;2023-06-19T11:37:37;4.20;;;1.73;;
69621;SDS011;56841;55.964;37.674;2023-06-19T11:40:06;7.68;;;3.40;;
69621;SDS011;56841;55.964;37.674;2023-06-19T11:42:48;8.68;;;5.47;;
69621;SDS011;56841;55.964;37.674;2023-06-19T11:45:16;4.30;;;2.35;;
69621;SDS011;56841;55.964;37.674;2023-06-19T11:47:43;7.25;;;5.18;;
69621;SDS011;56841;55.964;37.674;2023-06-19T11:50:10;3.90;;;1.75;;
69621;SDS011;56841;55.964;37.674;2023-06-19T11:52:36;5.53;;;2.80;;
69621;SDS011;56841;55.964;37.674;2023-06-19T11:55:02;7.68;;;4.43;;
69621;SDS011;56841;55.964;37.674;2023-06-19T11:57:28;4.13;;;2.28;;
69621;SDS011;56841;55.964;37.674;2023-06-19T11:59:54;3.88;;;2.00;;
69621;SDS011;56841;55.964;37.674;2023-06-19T12:02:20;2.63;;;1.50;;
69621;SDS011;56841;55.964;37.674;2023-06-19T12:04:46;2.40;;;1.58;;
69621;SDS011;56841;55.964;37.674;2023-06-19T12:07:12;2.88;;;1.50;;
69621;SDS011;56841;55.964;37.674;2023-06-19T12:09:37;3.90;;;1.65;;
69621;SDS011;56841;55.964;37.674;2023-06-19T12:12:04;4.82;;;2.58;;
69621;SDS011;56841;55.964;37.674;2023-06-19T12:14:31;6.60;;;2.63;;
69621;SDS011;56841;55.964;37.674;2023-06-19T12:16:56;4.05;;;1.80;;
69621;SDS011;56841;55.964;37.674;2023-06-19T12:19:22;3.88;;;1.50;;
69621;SDS011;56841;55.964;37.674;2023-06-19T12:21:48;2.83;;;1.50;;
69621;SDS011;56841;55.964;37.674;2023-06-19T12:24:13;3.15;;;1.30;;
69621;SDS011;56841;55.964;37.674;2023-06-19T12:26:39;2.55;;;1.77;;
69621;SDS011;56841;55.964;37.674;2023-06-19T12:29:05;3.80;;;1.73;;
69621;SDS011;56841;55.964;37.674;2023-06-19T12:31:32;3.95;;;2.08;;
69621;SDS011;56841;55.964;37.674;2023-06-19T12:33:59;2.90;;;1.77;;
69621;SDS011;56841;55.964;37.674;2023-06-19T12:36:26;3.22;;;1.60;;
69621;SDS011;56841;55.964;37.674;2023-06-19T12:38:52;4.47;;;1.70;;
69621;SDS011;56841;55.964;37.674;2023-06-19T12:41:22;3.90;;;1.50;;
69621;SDS011;56841;55.964;37.674;2023-06-19T12:43:47;2.72;;;1.70;;
69621;SDS011;56841;55.964;37.674;2023-06-19T12:46:14;4.07;;;2.05;;
69621;SDS011;56841;55.964;37.674;2023-06-19T12:48:40;5.25;;;2.05;;
69621;SDS011;56841;55.964;37.674;2023-06-19T12:51:07;2.80;;;1.50;;
69621;SDS011;56841;55.964;37.674;2023-06-19T12:53:32;3.50;;;1.70;;
69621;SDS011;56841;55.964;37.674;2023-06-19T12:55:59;3.10;;;1.67;;
69621;SDS011;56841;55.964;37.674;2023-06-19T12:58:25;3.60;;;1.63;;
69621;SDS011;56841;55.964;37.674;2023-06-19T13:00:51;4.95;;;2.53;;
69621;SDS011;56841;55.964;37.674;2023-06-19T13:03:18;3.25;;;1.60;;
69621;SDS011;56841;55.964;37.674;2023-06-19T13:05:44;5.07;;;3.10;;
69621;SDS011;56841;55.964;37.674;2023-06-19T13:08:10;11.10;;;7.20;;
69621;SDS011;56841;55.964;37.674;2023-06-19T13:10:36;4.50;;;1.80;;
69621;SDS011;56841;55.964;37.674;2023-06-19T13:13:02;4.38;;;1.98;;
69621;SDS011;56841;55.964;37.674;2023-06-19T13:15:30;7.43;;;3.78;;
69621;SDS011;56841;55.964;37.674;2023-06-19T13:17:59;3.67;;;1.85;;
69621;SDS011;56841;55.964;37.674;2023-06-19T13:20:24;3.05;;;1.60;;
69621;SDS011;56841;55.964;37.674;2023-06-19T13:22:50;6.35;;;2.80;;
69621;SDS011;56841;55.964;37.674;2023-06-19T13:25:17;3.30;;;2.10;;
69621;SDS011;56841;55.964;37.674;2023-06-19T13:27:42;3.35;;;1.63;;
69621;SDS011;56841;55.964;37.674;2023-06-19T13:30:08;2.97;;;1.58;;
69621;SDS011;56841;55.964;37.674;2023-06-19T13:32:34;2.70;;;1.70;;
69621;SDS011;56841;55.964;37.674;2023-06-19T13:35:00;4.18;;;2.03;;
69621;SDS011;56841;55.964;37.674;2023-06-19T13:37:25;3.22;;;1.60;;
69621;SDS011;56841;55.964;37.674;2023-06-19T13:39:51;3.33;;;1.50;;
69621;SDS011;56841;55.964;37.674;2023-06-19T13:42:17;3.30;;;1.60;;
69621;SDS011;56841;55.964;37.674;2023-06-19T13:44:42;3.95;;;1.80;;
69621;SDS011;56841;55.964;37.674;2023-06-19T13:47:08;2.72;;;1.90;;
69621;SDS011;56841;55.964;37.674;2023-06-19T13:49:34;4.65;;;2.13;;
69621;SDS011;56841;55.964;37.674;2023-06-19T13:51:59;3.58;;;1.65;;
69621;SDS011;56841;55.964;37.674;2023-06-19T13:54:25;2.40;;;1.65;;
69621;SDS011;56841;55.964;37.674;2023-06-19T13:56:51;2.65;;;1.67;;
69621;SDS011;56841;55.964;37.674;2023-06-19T13:59:17;2.95;;;1.90;;
69621;SDS011;56841;55.964;37.674;2023-06-19T14:01:43;4.85;;;1.85;;
69621;SDS011;56841;55.964;37.674;2023-06-19T14:04:08;6.45;;;3.95;;
69621;SDS011;56841;55.964;37.674;2023-06-19T14:06:34;6.63;;;3.97;;
69621;SDS011;56841;55.964;37.674;2023-06-19T14:09:01;5.00;;;2.33;;
69621;SDS011;56841;55.964;37.674;2023-06-19T14:11:26;4.43;;;1.95;;
69621;SDS011;56841;55.964;37.674;2023-06-19T14:13:57;7.03;;;3.90;;
69621;SDS011;56841;55.964;37.674;2023-06-19T14:16:23;5.22;;;3.38;;
69621;SDS011;56841;55.964;37.674;2023-06-19T14:18:49;4.63;;;2.83;;
69621;SDS011;56841;55.964;37.674;2023-06-19T14:21:14;3.15;;;1.90;;
69621;SDS011;56841;55.964;37.674;2023-06-19T14:23:40;3.67;;;2.13;;
69621;SDS011;56841;55.964;37.674;2023-06-19T14:26:09;4.45;;;1.60;;
69621;SDS011;56841;55.964;37.674;2023-06-19T14:28:36;5.10;;;3.75;;
69621;SDS011;56841;55.964;37.674;2023-06-19T14:31:03;3.72;;;2.03;;
69621;SDS011;56841;55.964;37.674;2023-06-19T14:33:29;4.55;;;3.03;;
69621;SDS011;56841;55.964;37.674;2023-06-19T14:35:55;6.80;;;4.90;;
69621;SDS011;56841;55.964;37.674;2023-06-19T14:38:20;6.60;;;3.85;;
69621;SDS011;56841;55.964;37.674;2023-06-19T14:40:46;4.47;;;2.10;;
69621;SDS011;56841;55.964;37.674;2023-06-19T14:43:12;5.22;;;2.55;;
69621;SDS011;56841;55.964;37.674;2023-06-19T14:45:37;5.75;;;2.30;;